Airfield :
LOGIN :

Register | Disclaimer

   EN    FR    IT 

 










Legend :    VFR   Marginal VFR   IFR   Intensive IFR   Very Intensive IFR
Visi :
Ceiling :
>= 8 km
>= 3000ft
5 to 8 km
1000 to 3000 ft
1500m to 5 km
500 to 1000 ft
800 to 1500m
200 to 500 ft
< 800m
< 200 ft
Symbols :   Thunderstorms  Fog  Heavy snow  Heavy precipitations  Wind > 20 kt
SIGMETs :     Misc.  Thunderstorms  Icing  Turbulence  Mountain Waves  Volcanic Ashes






- Airport Elevation : 584 ft


LFPV - Villacoublay Vélizy

CURRENT METAR :
  • 231330Z AUTO 24014KT 9999 OVC012 12/09 Q1023 TEMPO 24018G30KT

EXPIRED METARs :
  • 231300Z AUTO 24014KT 200V270 9999 OVC012 11/09 Q1024 TEMPO 24018G30KT
  • 231230Z AUTO 23012KT 9999 OVC012 11/09 Q1024 TEMPO 24018G30KT
  • 231200Z AUTO 23013KT 200V270 9999 OVC013 11/09 Q1024 TEMPO 24018G30KT
  • 231130Z AUTO 22013KT 190V250 9999 OVC011 11/09 Q1024 TEMPO 24018G30KT
  • 231100Z AUTO 23012G24KT 190V260 9999 OVC011 11/09 Q1024 NOSIG

TAF AMD TAF LFPV
Valid from the 23 at 09:00 until the 24 at 09:00 UTC


230854Z 2309/2409 23012KT 9999 BKN010
TEMPO 2309/2315 24018G30KT
TEMPO 2318/2408 3000 RADZ BKN004



MET'MAP, your aeronautical weather chart ! - Copyright ORBIFLY December 2007 - Disclaimer

ORBIFLY MET'MAP TEAM :

Programming & Development : Alexandra Zaïnal
Concept & original design : Baudouin d'Aumeries
Assistance for programming : Marc-Olivier Méhu
Technical & hardware support : Manuel Goepfert

Contact : metmap@orbifly.com




SOURCES & CREDITS :

   NOAA